Terminal Aerodrome Forecast
Issued by NWS Spokane, WA

Home | Current Version | Previous Version | Text Only | Print | Product List | Glossary On
Versions: 1 2 3 4 5 6 7 8 9 10 11 12 13
000
FTUS46 KOTX 241740
TAFGEG
TAF
KGEG 241740Z 2418/2518 27017G24KT P6SM SCT050
     FM242300 29014G23KT P6SM BKN060 BKN100
     FM250200 30012KT P6SM SCT060 BKN150
     FM250500 24005KT P6SM SCT120 SCT200=

USA.gov is the U.S. government's official web portal to all federal, state and local government web resources and services.